sensor_id;sensor_type;location;lat;lon;timestamp;temperature;humidity
18597;DHT22;9428;50.950;6.912;2022-07-23T00:00:52;18.80;99.90
18597;DHT22;9428;50.950;6.912;2022-07-23T00:03:40;18.80;99.90
18597;DHT22;9428;50.950;6.912;2022-07-23T00:06:28;18.70;99.90
18597;DHT22;9428;50.950;6.912;2022-07-23T00:09:15;18.60;99.90
18597;DHT22;9428;50.950;6.912;2022-07-23T00:12:03;18.80;99.90
18597;DHT22;9428;50.950;6.912;2022-07-23T00:14:50;18.90;99.90
18597;DHT22;9428;50.950;6.912;2022-07-23T00:17:38;18.70;99.90
18597;DHT22;9428;50.950;6.912;2022-07-23T00:20:26;18.50;99.90
18597;DHT22;9428;50.950;6.912;2022-07-23T00:23:13;18.20;99.90
18597;DHT22;9428;50.950;6.912;2022-07-23T00:26:01;18.00;99.90
18597;DHT22;9428;50.950;6.912;2022-07-23T00:28:48;18.00;99.90
18597;DHT22;9428;50.950;6.912;2022-07-23T00:31:36;17.90;99.90
18597;DHT22;9428;50.950;6.912;2022-07-23T00:34:23;17.90;99.90
18597;DHT22;9428;50.950;6.912;2022-07-23T00:37:11;17.80;99.90
18597;DHT22;9428;50.950;6.912;2022-07-23T00:39:59;18.00;99.90
18597;DHT22;9428;50.950;6.912;2022-07-23T00:42:46;17.80;99.90
18597;DHT22;9428;50.950;6.912;2022-07-23T00:45:33;17.80;99.90
18597;DHT22;9428;50.950;6.912;2022-07-23T00:48:20;17.80;99.90
18597;DHT22;9428;50.950;6.912;2022-07-23T00:51:08;17.90;99.90
18597;DHT22;9428;50.950;6.912;2022-07-23T00:53:56;18.10;99.90
18597;DHT22;9428;50.950;6.912;2022-07-23T00:56:44;17.90;99.90
18597;DHT22;9428;50.950;6.912;2022-07-23T00:59:32;17.90;99.90
18597;DHT22;9428;50.950;6.912;2022-07-23T01:02:19;18.00;99.90
18597;DHT22;9428;50.950;6.912;2022-07-23T01:05:07;18.00;99.90
18597;DHT22;9428;50.950;6.912;2022-07-23T01:07:54;18.10;99.90
18597;DHT22;9428;50.950;6.912;2022-07-23T01:10:44;18.40;99.90
18597;DHT22;9428;50.950;6.912;2022-07-23T01:13:31;17.90;99.90
18597;DHT22;9428;50.950;6.912;2022-07-23T01:16:18;18.00;99.90
18597;DHT22;9428;50.950;6.912;2022-07-23T01:19:06;18.00;99.90
18597;DHT22;9428;50.950;6.912;2022-07-23T01:21:53;18.10;99.90
18597;DHT22;9428;50.950;6.912;2022-07-23T01:24:43;18.20;99.90
18597;DHT22;9428;50.950;6.912;2022-07-23T01:27:30;18.20;99.90
18597;DHT22;9428;50.950;6.912;2022-07-23T01:30:18;18.10;99.90
18597;DHT22;9428;50.950;6.912;2022-07-23T01:33:05;18.20;99.90
18597;DHT22;9428;50.950;6.912;2022-07-23T01:35:53;18.20;99.90
18597;DHT22;9428;50.950;6.912;2022-07-23T01:38:40;18.20;99.90
18597;DHT22;9428;50.950;6.912;2022-07-23T01:41:28;18.10;99.90
18597;DHT22;9428;50.950;6.912;2022-07-23T01:44:16;18.00;99.90
18597;DHT22;9428;50.950;6.912;2022-07-23T01:47:03;17.90;99.90
18597;DHT22;9428;50.950;6.912;2022-07-23T01:49:50;18.20;99.90
18597;DHT22;9428;50.950;6.912;2022-07-23T01:52:37;17.80;99.90
18597;DHT22;9428;50.950;6.912;2022-07-23T01:55:25;17.70;99.90
18597;DHT22;9428;50.950;6.912;2022-07-23T01:58:13;17.60;99.90
18597;DHT22;9428;50.950;6.912;2022-07-23T02:01:01;17.60;99.90
18597;DHT22;9428;50.950;6.912;2022-07-23T02:03:48;17.50;99.90
18597;DHT22;9428;50.950;6.912;2022-07-23T02:06:35;18.00;99.90
18597;DHT22;9428;50.950;6.912;2022-07-23T02:09:25;18.10;99.90
18597;DHT22;9428;50.950;6.912;2022-07-23T02:12:12;18.00;99.90
18597;DHT22;9428;50.950;6.912;2022-07-23T02:15:01;17.80;99.90
18597;DHT22;9428;50.950;6.912;2022-07-23T02:17:49;17.60;99.90
18597;DHT22;9428;50.950;6.912;2022-07-23T02:20:36;17.90;99.90
18597;DHT22;9428;50.950;6.912;2022-07-23T02:23:24;18.00;99.90
18597;DHT22;9428;50.950;6.912;2022-07-23T02:26:11;17.90;99.90
18597;DHT22;9428;50.950;6.912;2022-07-23T02:28:59;17.90;99.90
18597;DHT22;9428;50.950;6.912;2022-07-23T02:31:47;18.10;99.90
18597;DHT22;9428;50.950;6.912;2022-07-23T02:34:35;18.10;99.90
18597;DHT22;9428;50.950;6.912;2022-07-23T02:37:22;18.20;99.90
18597;DHT22;9428;50.950;6.912;2022-07-23T02:40:10;18.00;99.90
18597;DHT22;9428;50.950;6.912;2022-07-23T02:42:57;18.10;99.90
18597;DHT22;9428;50.950;6.912;2022-07-23T02:45:45;17.90;99.90
18597;DHT22;9428;50.950;6.912;2022-07-23T02:48:33;18.20;99.90
18597;DHT22;9428;50.950;6.912;2022-07-23T02:51:21;18.10;99.90
18597;DHT22;9428;50.950;6.912;2022-07-23T02:54:08;18.10;99.90
18597;DHT22;9428;50.950;6.912;2022-07-23T02:56:55;17.90;99.90
18597;DHT22;9428;50.950;6.912;2022-07-23T02:59:42;17.90;99.90
18597;DHT22;9428;50.950;6.912;2022-07-23T03:02:30;18.00;99.90
18597;DHT22;9428;50.950;6.912;2022-07-23T03:05:18;18.00;99.90
18597;DHT22;9428;50.950;6.912;2022-07-23T03:08:05;17.90;99.90
18597;DHT22;9428;50.950;6.912;2022-07-23T03:10:53;17.80;99.90
18597;DHT22;9428;50.950;6.912;2022-07-23T03:13:41;17.80;99.90
18597;DHT22;9428;50.950;6.912;2022-07-23T03:16:28;17.90;99.90
18597;DHT22;9428;50.950;6.912;2022-07-23T03:19:15;17.80;99.90
18597;DHT22;9428;50.950;6.912;2022-07-23T03:22:04;18.00;99.90
18597;DHT22;9428;50.950;6.912;2022-07-23T03:24:51;17.80;99.90
18597;DHT22;9428;50.950;6.912;2022-07-23T03:27:41;17.70;99.90
18597;DHT22;9428;50.950;6.912;2022-07-23T03:30:28;17.70;99.90
18597;DHT22;9428;50.950;6.912;2022-07-23T03:33:17;17.70;99.90
18597;DHT22;9428;50.950;6.912;2022-07-23T03:36:04;17.80;99.90
18597;DHT22;9428;50.950;6.912;2022-07-23T03:38:53;17.80;99.90
18597;DHT22;9428;50.950;6.912;2022-07-23T03:41:40;17.70;99.90
18597;DHT22;9428;50.950;6.912;2022-07-23T03:44:28;17.70;99.90
18597;DHT22;9428;50.950;6.912;2022-07-23T03:47:15;17.50;99.90
18597;DHT22;9428;50.950;6.912;2022-07-23T03:50:03;17.50;99.90
18597;DHT22;9428;50.950;6.912;2022-07-23T03:52:51;17.50;99.90
18597;DHT22;9428;50.950;6.912;2022-07-23T03:55:40;17.60;99.90
18597;DHT22;9428;50.950;6.912;2022-07-23T03:58:27;17.60;99.90
18597;DHT22;9428;50.950;6.912;2022-07-23T04:01:14;17.60;99.90
18597;DHT22;9428;50.950;6.912;2022-07-23T04:04:02;17.60;99.90
18597;DHT22;9428;50.950;6.912;2022-07-23T04:06:49;17.50;99.90
18597;DHT22;9428;50.950;6.912;2022-07-23T04:09:36;17.60;99.90
18597;DHT22;9428;50.950;6.912;2022-07-23T04:12:25;17.60;99.90
18597;DHT22;9428;50.950;6.912;2022-07-23T04:15:12;17.50;99.90
18597;DHT22;9428;50.950;6.912;2022-07-23T04:17:59;17.60;99.90
18597;DHT22;9428;50.950;6.912;2022-07-23T04:20:47;17.50;99.90
18597;DHT22;9428;50.950;6.912;2022-07-23T04:23:34;17.40;99.90
18597;DHT22;9428;50.950;6.912;2022-07-23T04:26:21;17.40;99.90
18597;DHT22;9428;50.950;6.912;2022-07-23T04:29:10;17.40;99.90
18597;DHT22;9428;50.950;6.912;2022-07-23T04:31:57;17.50;99.90
18597;DHT22;9428;50.950;6.912;2022-07-23T04:34:45;17.40;99.90
18597;DHT22;9428;50.950;6.912;2022-07-23T04:37:32;17.50;99.90
18597;DHT22;9428;50.950;6.912;2022-07-23T04:40:19;18.20;99.90
18597;DHT22;9428;50.950;6.912;2022-07-23T04:43:06;17.50;99.90
18597;DHT22;9428;50.950;6.912;2022-07-23T04:45:55;17.50;99.90
18597;DHT22;9428;50.950;6.912;2022-07-23T04:48:43;17.40;99.90
18597;DHT22;9428;50.950;6.912;2022-07-23T04:51:30;17.40;99.90
18597;DHT22;9428;50.950;6.912;2022-07-23T04:54:18;17.60;99.90
18597;DHT22;9428;50.950;6.912;2022-07-23T04:57:05;17.60;99.90
18597;DHT22;9428;50.950;6.912;2022-07-23T04:59:52;17.60;99.90
18597;DHT22;9428;50.950;6.912;2022-07-23T05:02:41;17.70;99.90
18597;DHT22;9428;50.950;6.912;2022-07-23T05:05:28;17.70;99.90
18597;DHT22;9428;50.950;6.912;2022-07-23T05:08:16;17.70;99.90
18597;DHT22;9428;50.950;6.912;2022-07-23T05:11:03;17.70;99.90
18597;DHT22;9428;50.950;6.912;2022-07-23T05:13:50;17.60;99.90
18597;DHT22;9428;50.950;6.912;2022-07-23T05:16:38;18.10;99.90
18597;DHT22;9428;50.950;6.912;2022-07-23T05:19:27;17.60;99.90
18597;DHT22;9428;50.950;6.912;2022-07-23T05:22:14;18.00;99.90
18597;DHT22;9428;50.950;6.912;2022-07-23T05:25:01;17.80;99.90
18597;DHT22;9428;50.950;6.912;2022-07-23T05:27:50;17.50;99.90
18597;DHT22;9428;50.950;6.912;2022-07-23T05:30:37;17.60;99.90
18597;DHT22;9428;50.950;6.912;2022-07-23T05:33:25;17.50;99.90
18597;DHT22;9428;50.950;6.912;2022-07-23T05:36:13;17.50;99.90
18597;DHT22;9428;50.950;6.912;2022-07-23T05:39:01;17.60;99.90
18597;DHT22;9428;50.950;6.912;2022-07-23T05:41:48;17.70;99.90
18597;DHT22;9428;50.950;6.912;2022-07-23T05:44:35;17.70;99.90
18597;DHT22;9428;50.950;6.912;2022-07-23T05:47:23;17.70;99.90
18597;DHT22;9428;50.950;6.912;2022-07-23T05:50:10;17.70;99.90
18597;DHT22;9428;50.950;6.912;2022-07-23T05:52:59;17.70;99.90
18597;DHT22;9428;50.950;6.912;2022-07-23T05:55:47;17.70;99.90
18597;DHT22;9428;50.950;6.912;2022-07-23T05:58:34;17.90;99.90
18597;DHT22;9428;50.950;6.912;2022-07-23T06:01:21;17.90;99.90
18597;DHT22;9428;50.950;6.912;2022-07-23T06:04:08;18.00;99.90
18597;DHT22;9428;50.950;6.912;2022-07-23T06:06:56;17.90;99.90
18597;DHT22;9428;50.950;6.912;2022-07-23T06:09:44;17.90;99.90
18597;DHT22;9428;50.950;6.912;2022-07-23T06:12:32;18.10;99.90
18597;DHT22;9428;50.950;6.912;2022-07-23T06:15:20;18.10;99.90
18597;DHT22;9428;50.950;6.912;2022-07-23T06:18:07;18.10;99.90
18597;DHT22;9428;50.950;6.912;2022-07-23T06:20:54;18.10;99.90
18597;DHT22;9428;50.950;6.912;2022-07-23T06:23:41;18.10;99.90
18597;DHT22;9428;50.950;6.912;2022-07-23T06:26:30;18.10;99.90
18597;DHT22;9428;50.950;6.912;2022-07-23T06:29:17;18.20;99.90
18597;DHT22;9428;50.950;6.912;2022-07-23T06:32:05;18.30;99.90
18597;DHT22;9428;50.950;6.912;2022-07-23T06:34:52;18.30;99.90
18597;DHT22;9428;50.950;6.912;2022-07-23T06:37:39;18.30;99.90
18597;DHT22;9428;50.950;6.912;2022-07-23T06:40:27;18.30;99.90
18597;DHT22;9428;50.950;6.912;2022-07-23T06:43:15;17.70;99.90
18597;DHT22;9428;50.950;6.912;2022-07-23T06:46:03;18.40;99.90
18597;DHT22;9428;50.950;6.912;2022-07-23T06:48:50;18.50;99.90
18597;DHT22;9428;50.950;6.912;2022-07-23T06:51:37;18.60;99.90
18597;DHT22;9428;50.950;6.912;2022-07-23T06:54:25;18.60;99.90
18597;DHT22;9428;50.950;6.912;2022-07-23T06:57:12;18.60;99.90
18597;DHT22;9428;50.950;6.912;2022-07-23T07:00:00;18.70;99.90
18597;DHT22;9428;50.950;6.912;2022-07-23T07:02:48;18.70;99.90
18597;DHT22;9428;50.950;6.912;2022-07-23T07:05:35;18.60;99.90
18597;DHT22;9428;50.950;6.912;2022-07-23T07:08:23;18.70;99.90
18597;DHT22;9428;50.950;6.912;2022-07-23T07:11:10;18.80;99.90
18597;DHT22;9428;50.950;6.912;2022-07-23T07:13:57;18.90;99.90
18597;DHT22;9428;50.950;6.912;2022-07-23T07:16:46;18.80;99.90
18597;DHT22;9428;50.950;6.912;2022-07-23T07:19:33;18.90;99.90
18597;DHT22;9428;50.950;6.912;2022-07-23T07:22:21;19.00;99.90
18597;DHT22;9428;50.950;6.912;2022-07-23T07:25:08;19.00;99.90
18597;DHT22;9428;50.950;6.912;2022-07-23T07:27:55;19.10;99.90
18597;DHT22;9428;50.950;6.912;2022-07-23T07:30:43;19.10;99.90
18597;DHT22;9428;50.950;6.912;2022-07-23T07:33:31;19.10;99.90
18597;DHT22;9428;50.950;6.912;2022-07-23T07:36:19;19.20;99.90
18597;DHT22;9428;50.950;6.912;2022-07-23T07:39:06;19.30;99.90
18597;DHT22;9428;50.950;6.912;2022-07-23T07:41:56;19.20;99.90
18597;DHT22;9428;50.950;6.912;2022-07-23T07:44:43;19.30;99.90
18597;DHT22;9428;50.950;6.912;2022-07-23T07:47:30;19.30;99.90
18597;DHT22;9428;50.950;6.912;2022-07-23T07:50:20;19.30;99.90
18597;DHT22;9428;50.950;6.912;2022-07-23T07:53:07;19.40;99.90
18597;DHT22;9428;50.950;6.912;2022-07-23T07:55:54;19.40;99.90
18597;DHT22;9428;50.950;6.912;2022-07-23T07:58:42;19.50;99.90
18597;DHT22;9428;50.950;6.912;2022-07-23T08:01:29;19.50;99.90
18597;DHT22;9428;50.950;6.912;2022-07-23T08:04:16;19.60;99.90
18597;DHT22;9428;50.950;6.912;2022-07-23T08:07:05;19.50;99.90
18597;DHT22;9428;50.950;6.912;2022-07-23T08:09:52;19.50;99.90
18597;DHT22;9428;50.950;6.912;2022-07-23T08:12:41;19.40;99.90
18597;DHT22;9428;50.950;6.912;2022-07-23T08:15:29;19.60;99.90
18597;DHT22;9428;50.950;6.912;2022-07-23T08:18:17;19.70;99.90
18597;DHT22;9428;50.950;6.912;2022-07-23T08:21:04;19.90;99.90
18597;DHT22;9428;50.950;6.912;2022-07-23T08:23:53;20.00;99.90
18597;DHT22;9428;50.950;6.912;2022-07-23T08:26:41;20.20;99.90
18597;DHT22;9428;50.950;6.912;2022-07-23T08:29:28;20.00;99.90
18597;DHT22;9428;50.950;6.912;2022-07-23T08:32:15;20.10;99.90
18597;DHT22;9428;50.950;6.912;2022-07-23T08:35:03;20.20;99.90
18597;DHT22;9428;50.950;6.912;2022-07-23T08:37:50;20.30;99.90
18597;DHT22;9428;50.950;6.912;2022-07-23T08:40:40;20.10;99.90
18597;DHT22;9428;50.950;6.912;2022-07-23T08:43:31;20.20;99.90
18597;DHT22;9428;50.950;6.912;2022-07-23T08:46:19;20.20;99.90
18597;DHT22;9428;50.950;6.912;2022-07-23T08:49:07;20.30;99.90
18597;DHT22;9428;50.950;6.912;2022-07-23T08:51:55;20.30;99.90
18597;DHT22;9428;50.950;6.912;2022-07-23T08:54:43;20.50;99.90
18597;DHT22;9428;50.950;6.912;2022-07-23T08:57:32;20.60;99.90
18597;DHT22;9428;50.950;6.912;2022-07-23T09:00:20;20.50;99.90
18597;DHT22;9428;50.950;6.912;2022-07-23T09:03:16;20.50;99.90
18597;DHT22;9428;50.950;6.912;2022-07-23T09:06:03;20.50;99.90
18597;DHT22;9428;50.950;6.912;2022-07-23T09:08:51;20.50;99.90
18597;DHT22;9428;50.950;6.912;2022-07-23T09:11:38;20.40;99.90
18597;DHT22;9428;50.950;6.912;2022-07-23T09:14:38;20.40;99.90
18597;DHT22;9428;50.950;6.912;2022-07-23T09:17:25;20.30;99.90
18597;DHT22;9428;50.950;6.912;2022-07-23T09:20:14;20.50;99.90
18597;DHT22;9428;50.950;6.912;2022-07-23T09:23:02;20.80;99.90
18597;DHT22;9428;50.950;6.912;2022-07-23T09:25:49;20.70;99.90
18597;DHT22;9428;50.950;6.912;2022-07-23T09:28:52;20.70;99.90
18597;DHT22;9428;50.950;6.912;2022-07-23T09:31:46;20.90;99.90
18597;DHT22;9428;50.950;6.912;2022-07-23T09:34:35;21.00;99.90
18597;DHT22;9428;50.950;6.912;2022-07-23T09:37:24;20.90;99.90
18597;DHT22;9428;50.950;6.912;2022-07-23T09:40:12;21.00;99.90
18597;DHT22;9428;50.950;6.912;2022-07-23T09:43:02;21.10;99.90
18597;DHT22;9428;50.950;6.912;2022-07-23T09:45:49;21.10;99.90
18597;DHT22;9428;50.950;6.912;2022-07-23T09:48:38;21.20;99.90
18597;DHT22;9428;50.950;6.912;2022-07-23T09:51:25;21.20;99.90
18597;DHT22;9428;50.950;6.912;2022-07-23T09:54:27;21.00;99.90
18597;DHT22;9428;50.950;6.912;2022-07-23T09:57:18;20.90;99.90
18597;DHT22;9428;50.950;6.912;2022-07-23T10:00:08;21.20;99.90
18597;DHT22;9428;50.950;6.912;2022-07-23T10:02:57;21.20;99.90
18597;DHT22;9428;50.950;6.912;2022-07-23T10:05:46;21.10;99.90
18597;DHT22;9428;50.950;6.912;2022-07-23T10:08:35;21.10;99.90
18597;DHT22;9428;50.950;6.912;2022-07-23T10:11:22;21.10;99.90
18597;DHT22;9428;50.950;6.912;2022-07-23T10:14:12;21.20;99.90
18597;DHT22;9428;50.950;6.912;2022-07-23T10:17:00;21.30;99.90
18597;DHT22;9428;50.950;6.912;2022-07-23T10:19:48;21.10;99.90
18597;DHT22;9428;50.950;6.912;2022-07-23T10:22:40;21.30;99.90
18597;DHT22;9428;50.950;6.912;2022-07-23T10:25:34;21.40;99.90
18597;DHT22;9428;50.950;6.912;2022-07-23T10:28:47;21.40;99.90
18597;DHT22;9428;50.950;6.912;2022-07-23T10:31:45;21.30;99.90
18597;DHT22;9428;50.950;6.912;2022-07-23T10:34:41;21.50;99.90
18597;DHT22;9428;50.950;6.912;2022-07-23T10:37:38;21.30;99.90
18597;DHT22;9428;50.950;6.912;2022-07-23T10:40:26;21.20;99.90
18597;DHT22;9428;50.950;6.912;2022-07-23T10:43:15;21.20;99.90
18597;DHT22;9428;50.950;6.912;2022-07-23T10:46:23;21.30;99.90
18597;DHT22;9428;50.950;6.912;2022-07-23T10:49:26;21.30;99.90
18597;DHT22;9428;50.950;6.912;2022-07-23T10:52:31;21.20;99.90
18597;DHT22;9428;50.950;6.912;2022-07-23T10:55:43;21.30;99.90
18597;DHT22;9428;50.950;6.912;2022-07-23T10:58:48;21.30;99.90
18597;DHT22;9428;50.950;6.912;2022-07-23T11:01:36;21.40;99.90
18597;DHT22;9428;50.950;6.912;2022-07-23T11:04:47;21.40;99.90
18597;DHT22;9428;50.950;6.912;2022-07-23T11:07:36;21.60;99.90
18597;DHT22;9428;50.950;6.912;2022-07-23T11:10:34;21.60;99.90
18597;DHT22;9428;50.950;6.912;2022-07-23T11:13:31;21.50;99.90
18597;DHT22;9428;50.950;6.912;2022-07-23T11:16:24;21.80;99.90
18597;DHT22;9428;50.950;6.912;2022-07-23T11:19:11;21.80;99.90
18597;DHT22;9428;50.950;6.912;2022-07-23T11:21:58;21.80;99.90
18597;DHT22;9428;50.950;6.912;2022-07-23T11:24:50;21.80;99.90
18597;DHT22;9428;50.950;6.912;2022-07-23T11:27:38;21.80;99.90
18597;DHT22;9428;50.950;6.912;2022-07-23T11:30:40;21.70;99.90
18597;DHT22;9428;50.950;6.912;2022-07-23T11:33:28;21.80;99.90
18597;DHT22;9428;50.950;6.912;2022-07-23T11:36:15;21.90;99.90
18597;DHT22;9428;50.950;6.912;2022-07-23T11:39:02;21.90;99.90
18597;DHT22;9428;50.950;6.912;2022-07-23T11:41:51;21.90;99.90
18597;DHT22;9428;50.950;6.912;2022-07-23T11:44:39;22.00;99.90
18597;DHT22;9428;50.950;6.912;2022-07-23T11:47:27;22.00;99.90
18597;DHT22;9428;50.950;6.912;2022-07-23T11:50:14;22.10;99.90
18597;DHT22;9428;50.950;6.912;2022-07-23T11:53:02;22.40;99.90
18597;DHT22;9428;50.950;6.912;2022-07-23T11:55:49;22.30;99.90
18597;DHT22;9428;50.950;6.912;2022-07-23T11:58:37;22.20;99.90
18597;DHT22;9428;50.950;6.912;2022-07-23T12:01:25;22.40;99.90
18597;DHT22;9428;50.950;6.912;2022-07-23T12:04:14;22.30;99.90
18597;DHT22;9428;50.950;6.912;2022-07-23T12:07:01;22.20;99.90
18597;DHT22;9428;50.950;6.912;2022-07-23T12:09:48;22.20;99.90
18597;DHT22;9428;50.950;6.912;2022-07-23T12:12:36;22.40;99.90
18597;DHT22;9428;50.950;6.912;2022-07-23T12:15:26;22.40;99.90
18597;DHT22;9428;50.950;6.912;2022-07-23T12:18:17;22.60;99.90
18597;DHT22;9428;50.950;6.912;2022-07-23T12:21:07;22.50;99.90
18597;DHT22;9428;50.950;6.912;2022-07-23T12:24:05;22.40;99.90
18597;DHT22;9428;50.950;6.912;2022-07-23T12:27:08;22.40;99.90
18597;DHT22;9428;50.950;6.912;2022-07-23T12:29:55;22.60;99.90
18597;DHT22;9428;50.950;6.912;2022-07-23T12:32:44;22.50;99.90
18597;DHT22;9428;50.950;6.912;2022-07-23T12:35:34;22.40;99.90
18597;DHT22;9428;50.950;6.912;2022-07-23T12:38:25;22.40;99.90
18597;DHT22;9428;50.950;6.912;2022-07-23T12:41:12;22.50;99.90
18597;DHT22;9428;50.950;6.912;2022-07-23T12:44:14;22.60;99.90
18597;DHT22;9428;50.950;6.912;2022-07-23T12:47:05;22.60;99.90
18597;DHT22;9428;50.950;6.912;2022-07-23T12:49:52;22.70;99.90
18597;DHT22;9428;50.950;6.912;2022-07-23T12:52:39;22.70;99.90
18597;DHT22;9428;50.950;6.912;2022-07-23T12:55:28;22.90;99.90
18597;DHT22;9428;50.950;6.912;2022-07-23T12:58:17;22.90;99.90
18597;DHT22;9428;50.950;6.912;2022-07-23T13:01:05;22.80;99.90
18597;DHT22;9428;50.950;6.912;2022-07-23T13:04:01;22.70;99.90
18597;DHT22;9428;50.950;6.912;2022-07-23T13:06:50;22.70;99.90
18597;DHT22;9428;50.950;6.912;2022-07-23T13:09:38;22.90;99.90
18597;DHT22;9428;50.950;6.912;2022-07-23T13:12:26;22.90;99.90
18597;DHT22;9428;50.950;6.912;2022-07-23T13:15:13;22.90;99.90
18597;DHT22;9428;50.950;6.912;2022-07-23T13:18:01;22.70;99.90
18597;DHT22;9428;50.950;6.912;2022-07-23T13:20:49;22.90;99.90
18597;DHT22;9428;50.950;6.912;2022-07-23T13:23:36;22.90;99.90
18597;DHT22;9428;50.950;6.912;2022-07-23T13:26:24;23.10;99.90
18597;DHT22;9428;50.950;6.912;2022-07-23T13:29:13;23.20;99.90
18597;DHT22;9428;50.950;6.912;2022-07-23T13:32:00;23.00;99.90
18597;DHT22;9428;50.950;6.912;2022-07-23T13:34:47;23.40;99.90
18597;DHT22;9428;50.950;6.912;2022-07-23T13:37:34;23.40;99.90
18597;DHT22;9428;50.950;6.912;2022-07-23T13:40:22;23.40;99.90
18597;DHT22;9428;50.950;6.912;2022-07-23T13:43:10;23.70;99.90
18597;DHT22;9428;50.950;6.912;2022-07-23T13:45:59;23.30;99.90
18597;DHT22;9428;50.950;6.912;2022-07-23T13:48:46;23.50;99.90
18597;DHT22;9428;50.950;6.912;2022-07-23T13:51:34;23.30;99.90
18597;DHT22;9428;50.950;6.912;2022-07-23T13:54:21;23.10;99.90
18597;DHT22;9428;50.950;6.912;2022-07-23T13:57:08;23.10;99.90
18597;DHT22;9428;50.950;6.912;2022-07-23T13:59:56;23.20;99.90
18597;DHT22;9428;50.950;6.912;2022-07-23T14:02:44;22.90;99.90
18597;DHT22;9428;50.950;6.912;2022-07-23T14:05:32;22.90;99.90
18597;DHT22;9428;50.950;6.912;2022-07-23T14:08:20;22.80;99.90
18597;DHT22;9428;50.950;6.912;2022-07-23T14:11:07;23.10;99.90
18597;DHT22;9428;50.950;6.912;2022-07-23T14:13:54;23.10;99.90
18597;DHT22;9428;50.950;6.912;2022-07-23T14:16:41;23.20;99.90
18597;DHT22;9428;50.950;6.912;2022-07-23T14:19:30;23.30;99.90
18597;DHT22;9428;50.950;6.912;2022-07-23T14:22:18;23.00;99.90
18597;DHT22;9428;50.950;6.912;2022-07-23T14:25:06;23.10;99.90
18597;DHT22;9428;50.950;6.912;2022-07-23T14:27:54;23.20;99.90
18597;DHT22;9428;50.950;6.912;2022-07-23T14:30:41;23.40;99.90
18597;DHT22;9428;50.950;6.912;2022-07-23T14:33:29;23.30;99.90
18597;DHT22;9428;50.950;6.912;2022-07-23T14:36:18;23.20;99.90
18597;DHT22;9428;50.950;6.912;2022-07-23T14:39:05;23.10;99.90
18597;DHT22;9428;50.950;6.912;2022-07-23T14:41:54;23.30;99.90
18597;DHT22;9428;50.950;6.912;2022-07-23T14:44:41;23.30;99.90
18597;DHT22;9428;50.950;6.912;2022-07-23T14:47:29;23.20;99.90
18597;DHT22;9428;50.950;6.912;2022-07-23T14:50:16;23.20;99.90
18597;DHT22;9428;50.950;6.912;2022-07-23T14:53:05;23.20;99.90
18597;DHT22;9428;50.950;6.912;2022-07-23T14:55:52;23.50;99.90
18597;DHT22;9428;50.950;6.912;2022-07-23T14:58:40;23.50;99.90
18597;DHT22;9428;50.950;6.912;2022-07-23T15:01:28;23.30;99.90
18597;DHT22;9428;50.950;6.912;2022-07-23T15:04:15;23.30;99.90
18597;DHT22;9428;50.950;6.912;2022-07-23T15:07:03;23.20;99.90
18597;DHT22;9428;50.950;6.912;2022-07-23T15:09:51;23.30;99.90
18597;DHT22;9428;50.950;6.912;2022-07-23T15:12:38;23.50;99.90
18597;DHT22;9428;50.950;6.912;2022-07-23T15:15:26;23.60;99.90
18597;DHT22;9428;50.950;6.912;2022-07-23T15:18:13;23.40;99.90
18597;DHT22;9428;50.950;6.912;2022-07-23T15:21:01;23.40;99.90
18597;DHT22;9428;50.950;6.912;2022-07-23T15:23:48;23.80;99.90
18597;DHT22;9428;50.950;6.912;2022-07-23T15:26:37;23.90;99.90
18597;DHT22;9428;50.950;6.912;2022-07-23T15:29:24;23.70;99.90
18597;DHT22;9428;50.950;6.912;2022-07-23T15:32:12;23.60;99.90
18597;DHT22;9428;50.950;6.912;2022-07-23T15:34:59;23.50;99.90
18597;DHT22;9428;50.950;6.912;2022-07-23T15:37:46;23.30;99.90
18597;DHT22;9428;50.950;6.912;2022-07-23T15:40:34;23.40;99.90
18597;DHT22;9428;50.950;6.912;2022-07-23T15:43:23;23.70;99.90
18597;DHT22;9428;50.950;6.912;2022-07-23T15:46:11;23.80;99.90
18597;DHT22;9428;50.950;6.912;2022-07-23T15:48:58;23.80;99.90
18597;DHT22;9428;50.950;6.912;2022-07-23T15:51:46;23.80;99.90
18597;DHT22;9428;50.950;6.912;2022-07-23T15:54:33;23.70;99.90
18597;DHT22;9428;50.950;6.912;2022-07-23T15:57:20;23.80;99.90
18597;DHT22;9428;50.950;6.912;2022-07-23T16:00:10;23.80;99.90
18597;DHT22;9428;50.950;6.912;2022-07-23T16:02:58;23.70;99.90
18597;DHT22;9428;50.950;6.912;2022-07-23T16:05:45;24.00;99.90
18597;DHT22;9428;50.950;6.912;2022-07-23T16:08:33;24.00;99.90
18597;DHT22;9428;50.950;6.912;2022-07-23T16:11:21;23.80;99.90
18597;DHT22;9428;50.950;6.912;2022-07-23T16:14:08;24.00;99.90
18597;DHT22;9428;50.950;6.912;2022-07-23T16:16:57;23.90;99.90
18597;DHT22;9428;50.950;6.912;2022-07-23T16:19:44;24.00;99.90
18597;DHT22;9428;50.950;6.912;2022-07-23T16:22:32;24.00;99.90
18597;DHT22;9428;50.950;6.912;2022-07-23T16:25:19;23.80;99.90
18597;DHT22;9428;50.950;6.912;2022-07-23T16:28:07;23.70;99.90
18597;DHT22;9428;50.950;6.912;2022-07-23T16:30:54;23.80;99.90
18597;DHT22;9428;50.950;6.912;2022-07-23T16:33:43;23.80;99.90
18597;DHT22;9428;50.950;6.912;2022-07-23T16:36:30;23.90;99.90
18597;DHT22;9428;50.950;6.912;2022-07-23T16:39:19;23.70;99.90
18597;DHT22;9428;50.950;6.912;2022-07-23T16:42:06;23.60;99.90
18597;DHT22;9428;50.950;6.912;2022-07-23T16:44:54;23.60;99.90
18597;DHT22;9428;50.950;6.912;2022-07-23T16:47:41;23.70;99.90
18597;DHT22;9428;50.950;6.912;2022-07-23T16:50:30;23.80;99.90
18597;DHT22;9428;50.950;6.912;2022-07-23T16:53:17;23.90;99.90
18597;DHT22;9428;50.950;6.912;2022-07-23T16:56:05;23.90;99.90
18597;DHT22;9428;50.950;6.912;2022-07-23T16:58:53;23.80;99.90
18597;DHT22;9428;50.950;6.912;2022-07-23T17:01:40;24.00;99.90
18597;DHT22;9428;50.950;6.912;2022-07-23T17:04:27;24.00;99.90
18597;DHT22;9428;50.950;6.912;2022-07-23T17:07:16;23.80;99.90
18597;DHT22;9428;50.950;6.912;2022-07-23T17:10:06;23.90;99.90
18597;DHT22;9428;50.950;6.912;2022-07-23T17:12:55;24.00;99.90
18597;DHT22;9428;50.950;6.912;2022-07-23T17:15:43;23.80;99.90
18597;DHT22;9428;50.950;6.912;2022-07-23T17:18:30;23.80;99.90
18597;DHT22;9428;50.950;6.912;2022-07-23T17:21:17;23.80;99.90
18597;DHT22;9428;50.950;6.912;2022-07-23T17:24:07;24.00;99.90
18597;DHT22;9428;50.950;6.912;2022-07-23T17:26:54;23.90;99.90
18597;DHT22;9428;50.950;6.912;2022-07-23T17:29:41;23.70;99.90
18597;DHT22;9428;50.950;6.912;2022-07-23T17:32:28;23.80;99.90
18597;DHT22;9428;50.950;6.912;2022-07-23T17:35:16;23.70;99.90
18597;DHT22;9428;50.950;6.912;2022-07-23T17:38:03;23.70;99.90
18597;DHT22;9428;50.950;6.912;2022-07-23T17:40:52;23.90;99.90
18597;DHT22;9428;50.950;6.912;2022-07-23T17:43:39;23.80;99.90
18597;DHT22;9428;50.950;6.912;2022-07-23T17:46:27;23.70;99.90
18597;DHT22;9428;50.950;6.912;2022-07-23T17:49:15;23.60;99.90
18597;DHT22;9428;50.950;6.912;2022-07-23T17:52:03;23.80;99.90
18597;DHT22;9428;50.950;6.912;2022-07-23T17:54:50;23.70;99.90
18597;DHT22;9428;50.950;6.912;2022-07-23T17:57:39;23.60;99.90
18597;DHT22;9428;50.950;6.912;2022-07-23T18:00:29;23.50;99.90